Time;durP1;ratioP1;P1;durP2;ratioP2;P2;SDS_P1;SDS_P2;PMS_P1;PMS_P2;Temp;Humidity;BMP_temperature;BMP_pressure;BME280_temperature;BME280_humidity;BME280_pressure;Samples;Min_cycle;Max_cycle;Signal;HPM_P1;HPM_P2
2023/05/14 00:00:42;;;;;;;9.43;6.53;;;14.60;99.90;;;;;;4956605;28;20046;-78
2023/05/14 00:03:09;;;;;;;9.13;7.00;;;14.60;99.90;;;;;;4954312;28;20274;-77
2023/05/14 00:05:35;;;;;;;8.55;7.20;;;14.50;99.90;;;;;;4958940;28;20469;-81
2023/05/14 00:08:01;;;;;;;9.63;6.97;;;14.50;99.90;;;;;;4956765;28;20034;-78
2023/05/14 00:10:28;;;;;;;9.10;6.40;;;14.40;99.90;;;;;;4945868;28;20049;-78
2023/05/14 00:12:54;;;;;;;11.27;7.75;;;14.30;99.90;;;;;;4951304;28;20528;-76
2023/05/14 00:15:20;;;;;;;7.13;5.82;;;14.20;99.90;;;;;;4951217;28;21830;-79
2023/05/14 00:17:47;;;;;;;6.53;5.93;;;14.20;99.90;;;;;;4933681;28;20057;-76
2023/05/14 00:20:13;;;;;;;6.15;5.43;;;14.20;99.90;;;;;;4942841;28;20037;-77
2023/05/14 00:22:40;;;;;;;7.70;5.60;;;14.10;99.90;;;;;;4952045;28;20349;-79
2023/05/14 00:25:07;;;;;;;7.25;5.82;;;14.10;99.90;;;;;;4953158;28;20122;-78
2023/05/14 00:27:34;;;;;;;10.18;6.43;;;14.00;99.90;;;;;;4959774;28;20084;-76
2023/05/14 00:30:03;;;;;;;8.68;7.05;;;14.00;99.90;;;;;;4934606;28;20049;-79
2023/05/14 00:32:30;;;;;;;7.20;5.75;;;13.90;99.90;;;;;;4951823;28;20042;-80
2023/05/14 00:34:57;;;;;;;8.88;5.85;;;13.90;99.90;;;;;;4934908;28;20496;-78
2023/05/14 00:37:30;;;;;;;9.20;4.95;;;13.80;99.90;;;;;;4950828;28;20630;-77
2023/05/14 00:39:57;;;;;;;12.70;6.47;;;13.80;99.90;;;;;;4941230;28;20296;-78
2023/05/14 00:42:23;;;;;;;8.57;6.63;;;13.80;99.90;;;;;;4952300;28;20038;-77
2023/05/14 00:44:49;;;;;;;5.07;4.57;;;13.80;99.90;;;;;;4949329;28;20030;-77
2023/05/14 00:47:16;;;;;;;5.47;4.80;;;13.70;99.90;;;;;;4925390;28;20193;-79
2023/05/14 00:49:43;;;;;;;9.18;5.75;;;13.70;99.90;;;;;;4947865;28;20035;-79
2023/05/14 00:52:10;;;;;;;8.90;6.47;;;13.60;99.90;;;;;;4945786;28;20049;-77
2023/05/14 00:54:36;;;;;;;7.80;6.22;;;13.60;99.90;;;;;;4952924;28;20425;-78
2023/05/14 00:57:05;;;;;;;10.45;6.57;;;13.60;99.90;;;;;;4950102;28;20042;-80
2023/05/14 00:59:31;;;;;;;6.25;5.03;;;13.60;99.90;;;;;;4941884;28;21111;-77
2023/05/14 01:01:58;;;;;;;8.68;6.20;;;13.60;99.90;;;;;;4969056;28;20401;-80
2023/05/14 01:04:24;;;;;;;6.68;5.38;;;13.60;99.90;;;;;;4950991;28;20042;-77
2023/05/14 01:07:15;;;;;;;7.25;4.97;;;13.70;99.90;;;;;;4952144;28;20053;-77
2023/05/14 01:09:56;;;;;;;11.48;5.75;;;13.70;99.90;;;;;;4934183;28;20360;-79
2023/05/14 01:12:44;;;;;;;10.45;7.30;;;13.70;99.90;;;;;;4947530;28;20066;-79
2023/05/14 01:15:18;;;;;;;8.60;6.13;;;13.70;99.90;;;;;;4952440;28;20040;-78
2023/05/14 01:17:51;;;;;;;7.22;5.55;;;13.70;99.90;;;;;;4952337;28;20518;-79
2023/05/14 01:20:17;;;;;;;6.25;5.00;;;13.70;99.90;;;;;;4946065;28;20054;-78
2023/05/14 01:22:43;;;;;;;7.72;5.50;;;13.70;99.90;;;;;;4955035;28;20026;-80
2023/05/14 01:25:10;;;;;;;7.43;6.18;;;13.60;99.90;;;;;;4936057;28;20050;-78
2023/05/14 01:27:42;;;;;;;7.85;6.03;;;13.60;99.90;;;;;;4956881;28;20310;-80
2023/05/14 01:30:37;;;;;;;8.13;6.68;;;13.60;99.90;;;;;;4936301;28;20038;-78
2023/05/14 01:33:15;;;;;;;9.98;6.03;;;13.60;99.90;;;;;;4958088;28;20089;-80
2023/05/14 01:35:42;;;;;;;6.50;5.57;;;13.50;99.90;;;;;;4968780;28;20034;-80
2023/05/14 01:38:11;;;;;;;10.20;7.57;;;13.40;99.90;;;;;;4935905;28;20381;-77
2023/05/14 01:40:38;;;;;;;10.23;7.63;;;13.40;99.90;;;;;;4942441;28;20045;-77
2023/05/14 01:43:05;;;;;;;8.75;7.07;;;13.30;99.90;;;;;;4936963;28;20475;-80
2023/05/14 01:45:35;;;;;;;6.13;5.55;;;13.30;99.90;;;;;;4952422;28;20532;-80
2023/05/14 01:48:01;;;;;;;8.23;6.57;;;13.20;99.90;;;;;;4958154;28;20050;-81
2023/05/14 01:50:28;;;;;;;7.47;6.28;;;13.20;99.90;;;;;;4920622;28;20038;-79
2023/05/14 01:52:55;;;;;;;14.73;9.13;;;13.20;99.90;;;;;;4961123;28;21264;-77
2023/05/14 01:55:25;;;;;;;10.18;7.05;;;13.10;99.90;;;;;;4959231;28;20692;-79
2023/05/14 01:57:51;;;;;;;8.20;6.10;;;13.10;99.90;;;;;;4973803;28;20033;-78
2023/05/14 02:00:19;;;;;;;15.48;9.45;;;13.00;99.90;;;;;;4941485;28;20038;-78
2023/05/14 02:02:45;;;;;;;8.45;7.15;;;13.00;99.90;;;;;;4954311;28;20041;-80
2023/05/14 02:05:12;;;;;;;10.85;8.25;;;13.00;99.90;;;;;;4954942;28;20053;-79
2023/05/14 02:07:39;;;;;;;12.30;9.02;;;12.90;99.90;;;;;;4957972;28;20026;-78
2023/05/14 02:10:06;;;;;;;10.60;8.77;;;12.90;99.90;;;;;;4967684;28;20049;-78
2023/05/14 02:12:32;;;;;;;11.65;8.90;;;12.80;99.90;;;;;;4941417;28;20050;-80
2023/05/14 02:14:59;;;;;;;17.90;11.95;;;12.80;99.90;;;;;;4939796;28;20046;-78
2023/05/14 02:17:27;;;;;;;13.93;11.30;;;12.70;99.90;;;;;;4969580;28;20045;-78
2023/05/14 02:19:54;;;;;;;13.35;10.98;;;12.70;99.90;;;;;;4924402;28;20027;-80
2023/05/14 02:22:20;;;;;;;11.55;8.35;;;12.70;99.90;;;;;;4936096;28;20038;-78
2023/05/14 02:24:48;;;;;;;9.02;8.18;;;12.60;99.90;;;;;;4967956;28;20045;-78
2023/05/14 02:27:14;;;;;;;9.85;7.55;;;12.50;99.90;;;;;;4951588;28;20039;-78
2023/05/14 02:29:41;;;;;;;10.00;7.65;;;12.50;99.90;;;;;;4930781;28;20057;-79
2023/05/14 02:32:07;;;;;;;7.20;6.45;;;12.50;99.90;;;;;;4957686;28;20658;-79
2023/05/14 02:34:34;;;;;;;8.18;7.32;;;12.40;99.90;;;;;;4974121;28;20061;-78
2023/05/14 02:37:00;;;;;;;9.25;7.53;;;12.40;99.90;;;;;;4953713;28;20038;-76
2023/05/14 02:39:27;;;;;;;10.60;8.43;;;12.40;99.90;;;;;;4957225;28;20039;-77
2023/05/14 02:41:53;;;;;;;15.27;8.15;;;12.30;99.90;;;;;;4952219;28;20380;-78
2023/05/14 02:44:20;;;;;;;10.02;8.63;;;12.30;99.90;;;;;;4935355;28;20054;-76
2023/05/14 02:46:46;;;;;;;10.70;8.93;;;12.30;99.90;;;;;;4950348;28;20041;-80
2023/05/14 02:49:13;;;;;;;12.35;9.70;;;12.20;99.90;;;;;;4946543;28;21518;-77
2023/05/14 02:51:39;;;;;;;10.82;8.90;;;12.20;99.90;;;;;;4955758;28;20045;-78
2023/05/14 02:54:06;;;;;;;13.52;9.73;;;12.20;99.90;;;;;;4958650;28;20039;-77
2023/05/14 02:56:32;;;;;;;15.75;9.43;;;12.10;99.90;;;;;;4954442;28;20042;-79
2023/05/14 02:58:58;;;;;;;16.40;12.43;;;12.10;99.90;;;;;;4948046;28;20754;-78
2023/05/14 03:01:25;;;;;;;10.93;8.93;;;12.10;99.90;;;;;;4927864;28;20034;-77
2023/05/14 03:03:51;;;;;;;11.38;10.10;;;12.00;99.90;;;;;;4935737;28;20058;-79
2023/05/14 03:06:17;;;;;;;11.38;9.05;;;12.00;99.90;;;;;;4935250;28;20042;-79
2023/05/14 03:08:44;;;;;;;9.23;7.78;;;11.90;99.90;;;;;;4949748;28;20030;-77
2023/05/14 03:11:10;;;;;;;16.58;11.18;;;11.90;99.90;;;;;;4948812;28;20033;-78
2023/05/14 03:13:37;;;;;;;17.90;12.80;;;11.90;99.90;;;;;;4958822;28;20073;-81
2023/05/14 03:16:03;;;;;;;16.35;11.18;;;11.80;99.90;;;;;;4944473;28;20046;-77
2023/05/14 03:18:29;;;;;;;11.25;8.27;;;11.80;99.90;;;;;;4950773;28;20520;-79
2023/05/14 03:20:56;;;;;;;15.90;12.93;;;11.80;99.90;;;;;;4943468;28;20347;-80
2023/05/14 03:23:22;;;;;;;12.93;10.50;;;11.70;99.90;;;;;;4956458;28;20405;-76
2023/05/14 03:25:48;;;;;;;10.20;8.88;;;11.70;99.90;;;;;;4970085;28;20035;-78
2023/05/14 03:28:14;;;;;;;9.50;8.27;;;11.70;99.90;;;;;;4937908;28;20042;-79
2023/05/14 03:30:41;;;;;;;16.08;11.32;;;11.60;99.90;;;;;;4930023;28;20034;-79
2023/05/14 03:33:07;;;;;;;17.08;12.98;;;11.60;99.90;;;;;;4962799;28;20034;-78
2023/05/14 03:35:33;;;;;;;12.73;9.05;;;11.60;99.90;;;;;;4961051;28;20034;-77
2023/05/14 03:38:00;;;;;;;18.38;14.98;;;11.60;99.90;;;;;;4956463;28;20715;-80
2023/05/14 03:40:26;;;;;;;15.38;12.60;;;11.50;99.90;;;;;;4929257;28;20501;-77
2023/05/14 03:42:52;;;;;;;13.60;11.63;;;11.50;99.90;;;;;;4954573;28;20034;-76
2023/05/14 03:45:19;;;;;;;12.70;10.85;;;11.50;99.90;;;;;;4955025;28;20670;-79
2023/05/14 03:47:45;;;;;;;15.23;11.57;;;11.40;99.90;;;;;;4955257;28;20038;-75
2023/05/14 03:50:11;;;;;;;17.13;12.75;;;11.40;99.90;;;;;;4943147;28;20053;-75
2023/05/14 03:52:39;;;;;;;12.05;10.35;;;11.40;99.90;;;;;;4961128;28;20057;-75
2023/05/14 03:55:06;;;;;;;14.98;11.55;;;11.40;99.90;;;;;;4978076;28;20418;-77
2023/05/14 03:57:32;;;;;;;16.23;12.52;;;11.40;99.90;;;;;;4961036;28;20026;-76
2023/05/14 03:59:58;;;;;;;15.30;12.02;;;11.40;99.90;;;;;;4929174;28;20034;-78
2023/05/14 04:02:25;;;;;;;18.52;14.20;;;11.40;99.90;;;;;;4954222;28;20034;-78
2023/05/14 04:04:51;;;;;;;14.45;11.68;;;11.40;99.90;;;;;;4954708;28;20034;-78
2023/05/14 04:07:19;;;;;;;13.90;10.70;;;11.40;99.90;;;;;;4958121;28;20053;-78
2023/05/14 04:09:46;;;;;;;14.05;10.77;;;11.40;99.90;;;;;;4934576;28;20171;-77
2023/05/14 04:12:12;;;;;;;12.65;11.30;;;11.40;99.90;;;;;;4958355;28;20065;-78
2023/05/14 04:14:39;;;;;;;15.77;11.27;;;11.40;99.90;;;;;;4962699;28;20133;-77
2023/05/14 04:17:05;;;;;;;13.35;9.35;;;11.40;99.90;;;;;;4947600;28;20057;-76
2023/05/14 04:19:31;;;;;;;13.63;10.82;;;11.40;99.90;;;;;;4947598;28;20042;-78
2023/05/14 04:21:58;;;;;;;14.65;11.65;;;11.40;99.90;;;;;;4936805;28;20050;-77
2023/05/14 04:24:24;;;;;;;16.67;14.20;;;11.40;99.90;;;;;;4955143;28;20030;-77
2023/05/14 04:26:50;;;;;;;16.25;11.18;;;11.40;99.90;;;;;;4954220;28;20042;-78
2023/05/14 04:29:17;;;;;;;18.73;14.38;;;11.40;99.90;;;;;;4964731;28;20528;-78
2023/05/14 04:31:43;;;;;;;15.68;13.10;;;11.40;99.90;;;;;;4952461;28;20342;-78
2023/05/14 04:34:09;;;;;;;16.40;11.45;;;11.40;99.90;;;;;;4958464;28;20042;-78
2023/05/14 04:36:36;;;;;;;21.35;14.38;;;11.40;99.90;;;;;;4931208;28;20046;-78
2023/05/14 04:39:02;;;;;;;21.52;16.15;;;11.40;99.90;;;;;;4957667;28;20026;-77
2023/05/14 04:41:29;;;;;;;18.02;14.35;;;11.40;99.90;;;;;;4949551;28;20042;-77
2023/05/14 04:43:55;;;;;;;16.58;12.15;;;11.40;99.90;;;;;;4954319;28;20044;-78
2023/05/14 04:46:22;;;;;;;17.10;13.73;;;11.40;99.90;;;;;;4954598;28;20034;-77
2023/05/14 04:48:49;;;;;;;15.35;12.82;;;11.50;99.90;;;;;;4951903;28;20038;-77
2023/05/14 04:51:15;;;;;;;14.68;10.77;;;11.50;99.90;;;;;;4947579;28;20509;-77
2023/05/14 04:53:41;;;;;;;16.23;13.60;;;11.60;99.90;;;;;;4954874;28;20046;-78
2023/05/14 04:56:08;;;;;;;17.85;12.43;;;11.70;99.90;;;;;;4947185;28;20716;-78
2023/05/14 04:58:34;;;;;;;14.50;12.27;;;11.80;99.90;;;;;;4959894;28;20037;-79
2023/05/14 05:01:01;;;;;;;15.50;12.93;;;11.90;99.90;;;;;;4947257;28;20026;-78
2023/05/14 05:03:27;;;;;;;16.48;11.18;;;12.10;99.90;;;;;;4954452;28;20069;-77
2023/05/14 05:05:54;;;;;;;12.07;9.10;;;12.30;99.90;;;;;;4955063;28;20401;-78
2023/05/14 05:08:20;;;;;;;16.95;12.27;;;12.50;99.90;;;;;;4954571;28;20030;-77
2023/05/14 05:10:46;;;;;;;15.63;10.13;;;12.70;99.90;;;;;;4959139;28;20041;-77
2023/05/14 05:13:14;;;;;;;11.88;10.35;;;12.80;99.90;;;;;;4952643;28;20057;-79
2023/05/14 05:15:40;;;;;;;12.65;11.05;;;13.00;99.90;;;;;;4960055;28;20042;-78
2023/05/14 05:18:06;;;;;;;12.65;10.57;;;13.10;99.90;;;;;;4960520;28;20042;-80
2023/05/14 05:20:33;;;;;;;13.05;11.02;;;13.20;99.90;;;;;;4949709;28;20038;-78
2023/05/14 05:22:59;;;;;;;10.40;9.27;;;13.40;99.90;;;;;;4952894;28;20033;-79
2023/05/14 05:25:26;;;;;;;19.85;15.10;;;13.50;99.90;;;;;;4952037;28;20034;-79
2023/05/14 05:27:53;;;;;;;15.98;11.98;;;13.70;99.90;;;;;;4952014;28;20042;-78
2023/05/14 05:30:19;;;;;;;16.20;12.15;;;13.60;99.90;;;;;;4945384;28;20034;-77
2023/05/14 05:32:45;;;;;;;13.27;10.30;;;13.60;99.90;;;;;;4953607;28;20061;-79
2023/05/14 05:35:12;;;;;;;10.95;8.95;;;13.60;99.90;;;;;;4954201;28;20026;-78
2023/05/14 05:37:38;;;;;;;17.83;13.93;;;13.60;99.90;;;;;;4960050;28;20089;-77
2023/05/14 05:40:05;;;;;;;12.82;10.75;;;13.70;99.90;;;;;;4969174;28;20042;-77
2023/05/14 05:42:32;;;;;;;14.77;12.27;;;13.80;99.90;;;;;;4956612;28;20041;-76
2023/05/14 05:44:58;;;;;;;10.75;9.07;;;13.90;99.90;;;;;;4951341;28;20337;-77
2023/05/14 05:47:24;;;;;;;11.15;10.05;;;13.90;99.90;;;;;;4935892;28;20049;-75
2023/05/14 05:49:50;;;;;;;21.20;16.13;;;14.10;99.90;;;;;;4960623;28;20046;-75
2023/05/14 05:52:17;;;;;;;15.55;12.25;;;14.20;99.90;;;;;;4953037;28;20053;-78
2023/05/14 05:54:43;;;;;;;12.40;10.70;;;14.30;99.90;;;;;;4952363;28;20047;-80
2023/05/14 05:57:09;;;;;;;10.35;9.23;;;14.40;99.90;;;;;;4960974;28;20043;-76
2023/05/14 05:59:36;;;;;;;12.15;8.95;;;14.50;99.90;;;;;;4946829;28;21266;-79
2023/05/14 06:02:02;;;;;;;10.13;8.40;;;14.70;99.90;;;;;;4956241;28;20045;-76
2023/05/14 06:04:28;;;;;;;13.55;9.25;;;14.80;99.90;;;;;;4951386;28;20033;-76
2023/05/14 06:06:54;;;;;;;7.88;6.80;;;14.90;99.90;;;;;;4950801;28;20038;-78
2023/05/14 06:09:21;;;;;;;9.45;7.50;;;15.00;99.90;;;;;;4944355;28;20042;-79
2023/05/14 06:11:47;;;;;;;12.35;7.72;;;15.20;99.90;;;;;;4949415;28;20033;-76
2023/05/14 06:14:13;;;;;;;11.35;8.38;;;15.40;99.90;;;;;;4952147;28;20049;-76
2023/05/14 06:16:40;;;;;;;7.57;6.88;;;15.50;99.90;;;;;;4963526;28;20037;-76
2023/05/14 06:19:07;;;;;;;7.40;6.60;;;15.60;99.90;;;;;;4976763;28;21059;-76
2023/05/14 06:21:33;;;;;;;10.30;7.63;;;15.70;99.90;;;;;;4957584;28;20034;-75
2023/05/14 06:23:59;;;;;;;8.88;7.72;;;15.90;99.90;;;;;;4939758;28;20041;-76
2023/05/14 06:26:26;;;;;;;8.15;7.38;;;16.10;99.90;;;;;;4954793;28;20050;-78
2023/05/14 06:28:52;;;;;;;8.45;6.68;;;16.30;99.90;;;;;;4933988;28;20886;-77
2023/05/14 06:31:18;;;;;;;8.20;7.13;;;16.60;99.90;;;;;;4930750;28;20069;-76
2023/05/14 06:33:44;;;;;;;8.40;6.82;;;16.90;99.90;;;;;;4967530;28;20393;-74
2023/05/14 06:36:11;;;;;;;8.05;6.57;;;17.30;99.90;;;;;;4951880;28;20049;-78
2023/05/14 06:38:37;;;;;;;9.00;6.07;;;17.50;99.90;;;;;;4942059;28;20045;-78
2023/05/14 06:41:03;;;;;;;9.05;6.30;;;17.70;99.90;;;;;;4951731;28;20458;-74
2023/05/14 06:43:29;;;;;;;8.00;6.78;;;17.90;99.90;;;;;;4959559;28;20037;-77
2023/05/14 06:45:56;;;;;;;10.10;7.25;;;18.00;99.90;;;;;;4954311;28;20038;-77
2023/05/14 06:48:22;;;;;;;6.75;5.30;;;18.20;99.90;;;;;;4953442;28;20046;-77
2023/05/14 06:50:49;;;;;;;7.60;5.70;;;18.30;99.90;;;;;;4944059;28;20042;-79
2023/05/14 06:53:15;;;;;;;10.10;7.97;;;18.40;99.90;;;;;;4954557;28;20034;-78
2023/05/14 06:55:42;;;;;;;7.38;5.93;;;18.60;99.90;;;;;;4953455;28;20039;-74
2023/05/14 06:58:08;;;;;;;5.75;4.07;;;18.60;99.90;;;;;;4958068;28;20035;-75
2023/05/14 07:00:35;;;;;;;6.00;5.40;;;18.70;99.90;;;;;;4937258;28;20042;-79
2023/05/14 07:03:01;;;;;;;6.10;5.40;;;18.80;99.90;;;;;;4963123;28;20038;-76
2023/05/14 07:05:27;;;;;;;5.93;4.30;;;18.90;99.90;;;;;;4960189;28;20489;-76
2023/05/14 07:07:54;;;;;;;9.65;5.32;;;19.00;99.90;;;;;;4956565;28;20034;-79
2023/05/14 07:10:20;;;;;;;5.13;4.40;;;19.00;99.90;;;;;;4948733;28;21080;-73
2023/05/14 07:12:47;;;;;;;7.03;5.03;;;19.00;99.90;;;;;;4955386;28;20057;-78
2023/05/14 07:15:13;;;;;;;7.18;5.85;;;18.90;99.90;;;;;;4955843;28;20030;-78
2023/05/14 07:17:40;;;;;;;7.10;4.78;;;18.90;99.90;;;;;;4956327;28;20041;-74
2023/05/14 07:20:07;;;;;;;4.57;3.72;;;18.90;99.90;;;;;;4953682;28;20452;-73
2023/05/14 07:22:33;;;;;;;7.70;6.07;;;19.00;99.90;;;;;;4961822;28;20919;-75
2023/05/14 07:24:59;;;;;;;7.38;4.90;;;19.10;99.90;;;;;;4963652;28;20054;-73
2023/05/14 07:27:25;;;;;;;5.28;4.40;;;19.10;99.90;;;;;;4955653;28;20022;-76
2023/05/14 07:29:52;;;;;;;8.45;4.25;;;19.10;99.90;;;;;;4944630;28;20516;-77
2023/05/14 07:32:18;;;;;;;6.07;4.53;;;19.10;99.90;;;;;;4955389;28;20034;-73
2023/05/14 07:34:45;;;;;;;5.18;4.40;;;19.00;99.90;;;;;;4954196;28;20436;-74
2023/05/14 07:37:11;;;;;;;7.70;4.80;;;19.20;99.90;;;;;;4954254;28;20393;-78
2023/05/14 07:39:37;;;;;;;6.53;5.18;;;19.40;99.90;;;;;;4945201;28;20347;-74
2023/05/14 07:42:07;;;;;;;7.05;5.25;;;19.60;99.90;;;;;;4947562;28;20038;-77
2023/05/14 07:44:33;;;;;;;7.13;4.22;;;19.80;99.90;;;;;;4960911;28;20030;-75
2023/05/14 07:46:59;;;;;;;4.85;3.80;;;20.00;99.90;;;;;;4961674;28;20035;-74
2023/05/14 07:49:25;;;;;;;8.60;5.38;;;20.10;99.90;;;;;;4947273;28;20373;-78
2023/05/14 07:51:52;;;;;;;7.95;4.22;;;20.20;99.90;;;;;;4953326;28;20042;-76
2023/05/14 07:54:18;;;;;;;5.55;4.15;;;20.40;99.90;;;;;;4953889;28;20050;-73
2023/05/14 07:56:44;;;;;;;5.50;3.35;;;20.40;99.90;;;;;;4955785;28;20733;-76
2023/05/14 07:59:10;;;;;;;6.63;3.95;;;20.50;99.90;;;;;;4950333;28;20690;-73
2023/05/14 08:01:37;;;;;;;7.22;3.70;;;20.60;99.90;;;;;;4956061;28;20038;-76
2023/05/14 08:04:03;;;;;;;7.65;4.65;;;20.60;99.90;;;;;;4963359;28;20038;-74
2023/05/14 08:06:29;;;;;;;4.78;3.42;;;20.80;99.90;;;;;;4946348;28;20041;-77
2023/05/14 08:08:55;;;;;;;5.78;3.88;;;20.80;99.90;;;;;;4952731;28;20047;-74
2023/05/14 08:11:22;;;;;;;5.85;3.00;;;20.90;99.90;;;;;;4967290;28;20586;-79
2023/05/14 08:13:48;;;;;;;8.90;4.38;;;21.00;99.90;;;;;;4953708;28;20056;-77
2023/05/14 08:16:14;;;;;;;5.30;2.85;;;21.10;99.90;;;;;;4954265;28;20042;-74
2023/05/14 08:18:41;;;;;;;3.33;2.00;;;21.20;99.90;;;;;;4952126;28;20042;-77
2023/05/14 08:21:07;;;;;;;3.95;2.08;;;21.30;99.90;;;;;;4948905;28;20034;-77
2023/05/14 08:23:33;;;;;;;6.47;3.20;;;21.50;99.90;;;;;;4966665;28;20030;-78
2023/05/14 08:26:00;;;;;;;4.20;2.50;;;21.60;99.90;;;;;;4969540;28;20482;-74
2023/05/14 08:28:26;;;;;;;4.85;2.20;;;21.70;99.90;;;;;;4961538;28;20038;-73
2023/05/14 08:30:53;;;;;;;2.30;1.92;;;21.80;99.90;;;;;;4947332;28;20039;-78
2023/05/14 08:33:19;;;;;;;2.63;1.50;;;21.80;99.90;;;;;;4954687;28;20053;-78
2023/05/14 08:35:45;;;;;;;2.92;1.60;;;21.90;99.90;;;;;;4953403;28;20034;-74
2023/05/14 08:38:11;;;;;;;2.33;1.30;;;22.00;99.90;;;;;;4952754;28;20397;-76
2023/05/14 08:40:38;;;;;;;2.13;1.55;;;22.00;99.90;;;;;;4933000;28;20037;-73
2023/05/14 08:43:06;;;;;;;2.30;1.38;;;22.00;99.90;;;;;;4943039;28;20038;-75
2023/05/14 08:45:34;;;;;;;2.22;1.25;;;22.20;99.90;;;;;;4963971;28;20041;-74
2023/05/14 08:48:07;;;;;;;4.63;1.13;;;22.40;99.90;;;;;;4945196;28;20374;-74
2023/05/14 08:50:34;;;;;;;7.15;1.60;;;22.60;99.90;;;;;;4944239;28;20517;-76
2023/05/14 08:53:01;;;;;;;2.95;1.77;;;22.90;99.50;;;;;;4952940;28;20426;-75
2023/05/14 08:55:28;;;;;;;3.53;1.65;;;23.10;98.60;;;;;;4970263;28;20030;-74
2023/05/14 08:57:55;;;;;;;2.78;1.20;;;23.30;98.20;;;;;;4954053;28;20080;-75
2023/05/14 09:00:22;;;;;;;3.92;1.27;;;23.50;96.70;;;;;;4927365;28;20440;-76
2023/05/14 09:02:48;;;;;;;3.97;1.08;;;23.80;95.40;;;;;;4956331;28;20034;-73
2023/05/14 09:05:17;;;;;;;1.92;0.90;;;24.00;94.30;;;;;;4960772;28;20077;-74
2023/05/14 09:07:44;;;;;;;4.70;0.90;;;24.20;93.70;;;;;;4959526;28;20061;-75
2023/05/14 09:10:10;;;;;;;2.65;0.90;;;24.30;92.40;;;;;;4944400;28;20905;-75
2023/05/14 09:12:36;;;;;;;1.95;0.73;;;24.30;91.50;;;;;;4954387;28;23094;-73
2023/05/14 09:15:03;;;;;;;1.70;0.88;;;24.40;90.80;;;;;;4954557;28;20042;-76
2023/05/14 09:17:29;;;;;;;3.50;1.30;;;24.40;90.00;;;;;;4953446;28;20735;-75
2023/05/14 09:19:57;;;;;;;1.60;0.95;;;24.50;88.20;;;;;;4941380;28;20029;-76
2023/05/14 09:22:23;;;;;;;4.63;0.80;;;24.60;87.00;;;;;;4941849;28;20765;-75
2023/05/14 09:25:10;;;;;;;2.70;1.00;;;24.60;86.60;;;;;;4959707;28;20033;-75
2023/05/14 09:27:38;;;;;;;4.05;1.30;;;24.80;84.30;;;;;;4959125;28;20306;-74
2023/05/14 09:30:11;;;;;;;4.80;1.40;;;24.70;82.30;;;;;;4943335;28;20611;-76
2023/05/14 09:32:42;;;;;;;3.58;1.20;;;24.70;80.30;;;;;;4954497;28;20035;-76
2023/05/14 09:35:18;;;;;;;2.13;1.15;;;24.80;79.60;;;;;;4953641;28;20126;-76
2023/05/14 09:37:54;;;;;;;3.47;1.13;;;24.90;79.50;;;;;;4938353;28;20072;-73
2023/05/14 09:40:22;;;;;;;1.83;1.00;;;25.00;78.60;;;;;;4942631;28;20130;-76
2023/05/14 09:42:49;;;;;;;2.55;0.93;;;25.10;77.70;;;;;;4957769;28;20054;-73
2023/05/14 09:45:16;;;;;;;2.30;1.00;;;25.10;76.60;;;;;;4959808;28;20026;-75
2023/05/14 09:47:43;;;;;;;1.88;1.27;;;25.10;76.10;;;;;;4961656;28;20042;-75
2023/05/14 09:50:10;;;;;;;1.58;1.02;;;25.20;75.00;;;;;;4966067;28;20418;-75
2023/05/14 09:52:37;;;;;;;2.80;1.20;;;25.30;74.80;;;;;;4959619;28;20042;-75
2023/05/14 09:55:04;;;;;;;1.83;0.90;;;25.40;74.00;;;;;;4954783;28;20421;-73
2023/05/14 09:57:30;;;;;;;1.55;1.05;;;25.50;73.50;;;;;;4951225;28;20436;-74
2023/05/14 09:59:57;;;;;;;1.35;0.75;;;25.60;73.70;;;;;;4943041;28;20052;-75
2023/05/14 10:02:36;;;;;;;4.70;0.90;;;25.80;73.20;;;;;;4935354;28;20042;-73
2023/05/14 10:05:04;;;;;;;3.58;1.00;;;26.00;72.90;;;;;;4952130;28;20394;-74
2023/05/14 10:07:40;;;;;;;3.25;1.00;;;26.20;70.60;;;;;;4960127;28;20477;-74
2023/05/14 10:10:10;;;;;;;2.10;0.90;;;26.30;68.70;;;;;;4947515;28;20034;-75
2023/05/14 10:12:39;;;;;;;4.80;2.00;;;26.20;65.90;;;;;;4954911;28;20058;-76
2023/05/14 10:15:15;;;;;;;4.72;2.28;;;26.20;65.90;;;;;;4953234;28;20402;-76
2023/05/14 10:17:46;;;;;;;3.40;1.77;;;26.30;65.00;;;;;;4968527;28;20042;-74
2023/05/14 10:20:15;;;;;;;4.15;2.00;;;26.40;63.60;;;;;;4941998;28;20034;-79
2023/05/14 10:22:42;;;;;;;5.07;2.28;;;26.40;63.20;;;;;;4952256;28;20038;-76
2023/05/14 10:25:08;;;;;;;2.67;1.50;;;26.50;64.10;;;;;;4950324;28;20500;-75
2023/05/14 10:27:35;;;;;;;4.18;1.25;;;26.70;63.20;;;;;;4960508;28;20475;-76
2023/05/14 10:30:09;;;;;;;2.35;0.98;;;26.90;62.90;;;;;;4950188;28;20547;-79
2023/05/14 10:32:36;;;;;;;2.55;1.00;;;27.20;61.60;;;;;;4959654;28;20046;-75
2023/05/14 10:35:19;;;;;;;3.22;1.25;;;27.50;61.70;;;;;;4969050;28;20030;-73
2023/05/14 10:37:45;;;;;;;2.63;1.02;;;27.90;62.80;;;;;;4953657;28;20042;-75
2023/05/14 10:40:13;;;;;;;2.47;1.20;;;27.90;61.30;;;;;;4944667;28;20397;-73
2023/05/14 10:42:41;;;;;;;3.13;1.00;;;27.70;60.40;;;;;;4953696;28;20038;-76
2023/05/14 10:45:09;;;;;;;2.55;0.98;;;27.40;61.00;;;;;;4952044;28;20038;-78
2023/05/14 10:47:39;;;;;;;3.53;1.33;;;27.30;62.60;;;;;;4956538;28;20035;-72
2023/05/14 10:50:08;;;;;;;2.35;1.60;;;27.50;63.50;;;;;;4947509;28;20034;-74
2023/05/14 10:52:34;;;;;;;1.50;1.00;;;27.80;64.10;;;;;;4961694;28;20501;-72
2023/05/14 10:55:11;;;;;;;2.78;1.25;;;28.10;63.90;;;;;;4950490;28;20042;-73
2023/05/14 10:57:40;;;;;;;2.47;1.00;;;28.30;60.40;;;;;;4967087;28;20611;-74
2023/05/14 11:00:07;;;;;;;3.55;1.48;;;28.10;60.50;;;;;;4940254;28;20038;-74
2023/05/14 11:02:36;;;;;;;1.92;1.23;;;28.20;61.30;;;;;;4952868;28;20034;-75
2023/05/14 11:05:07;;;;;;;3.20;1.48;;;28.50;60.90;;;;;;4953719;28;20827;-74
2023/05/14 11:07:36;;;;;;;2.15;1.10;;;28.80;60.10;;;;;;4954900;28;20042;-75
2023/05/14 11:10:24;;;;;;;4.25;1.00;;;29.00;59.70;;;;;;4948835;28;20042;-74
2023/05/14 11:12:51;;;;;;;1.92;0.90;;;29.20;60.00;;;;;;4957599;28;20054;-74
2023/05/14 11:15:22;;;;;;;2.38;1.08;;;29.70;60.00;;;;;;4954830;28;20042;-74
2023/05/14 11:17:49;;;;;;;2.80;1.58;;;30.00;58.20;;;;;;4951679;28;20042;-74
2023/05/14 11:20:16;;;;;;;4.30;3.90;;;30.00;52.60;;;;;;4943142;28;20447;-75
2023/05/14 11:22:44;;;;;;;4.45;1.98;;;29.60;52.80;;;;;;4952024;28;20246;-71
2023/05/14 11:25:14;;;;;;;3.67;2.92;;;29.60;52.50;;;;;;4953068;28;20241;-71
2023/05/14 11:27:43;;;;;;;2.20;1.05;;;29.20;51.50;;;;;;4952372;28;20042;-72
2023/05/14 11:30:14;;;;;;;1.75;1.08;;;28.70;51.50;;;;;;4950582;28;20035;-71
2023/05/14 11:32:40;;;;;;;1.85;1.10;;;28.50;51.90;;;;;;4929563;28;20038;-72
2023/05/14 11:35:07;;;;;;;2.38;0.80;;;28.40;50.90;;;;;;4959682;28;20042;-71
2023/05/14 11:37:33;;;;;;;1.45;0.75;;;28.20;50.80;;;;;;4953022;28;20035;-70
2023/05/14 11:40:05;;;;;;;1.40;0.90;;;28.10;50.40;;;;;;4941675;28;20285;-70
2023/05/14 11:42:31;;;;;;;1.83;0.85;;;27.80;51.10;;;;;;4953211;28;20041;-70
2023/05/14 11:44:58;;;;;;;4.38;0.90;;;27.60;50.90;;;;;;4955957;28;20039;-70
2023/05/14 11:47:24;;;;;;;1.83;0.82;;;27.50;51.50;;;;;;4971581;28;20397;-70
2023/05/14 11:49:51;;;;;;;2.17;0.80;;;27.40;51.70;;;;;;4947402;28;20424;-71
2023/05/14 11:52:18;;;;;;;3.42;1.08;;;27.30;51.70;;;;;;4964004;28;20452;-71
2023/05/14 11:54:44;;;;;;;3.13;0.93;;;27.20;51.40;;;;;;4961233;28;20034;-71
2023/05/14 11:57:13;;;;;;;1.92;0.80;;;27.10;49.90;;;;;;4961162;28;20397;-70
2023/05/14 11:59:40;;;;;;;3.03;0.80;;;26.80;50.00;;;;;;4946636;28;20050;-71
2023/05/14 12:02:14;;;;;;;3.47;0.85;;;26.60;50.20;;;;;;4956629;28;20054;-70
2023/05/14 12:04:48;;;;;;;2.67;1.05;;;26.40;50.20;;;;;;4973561;28;20713;-73
2023/05/14 12:07:16;;;;;;;3.53;1.02;;;26.20;50.90;;;;;;4958478;28;20046;-69
2023/05/14 12:09:48;;;;;;;2.00;1.00;;;26.10;51.10;;;;;;4944935;28;20100;-73
2023/05/14 12:12:21;;;;;;;2.05;1.00;;;26.00;50.60;;;;;;4962515;28;20065;-71
2023/05/14 12:14:49;;;;;;;3.50;1.00;;;26.00;50.40;;;;;;4962687;28;20038;-72
2023/05/14 12:17:17;;;;;;;3.17;1.02;;;25.90;50.50;;;;;;4961844;28;20035;-70
2023/05/14 12:19:46;;;;;;;2.95;1.08;;;26.00;50.60;;;;;;4934131;28;20034;-71
2023/05/14 12:22:21;;;;;;;2.92;1.40;;;26.10;50.60;;;;;;4956825;28;20118;-72
2023/05/14 12:24:58;;;;;;;2.70;0.93;;;26.70;50.80;;;;;;4955723;28;20042;-75
2023/05/14 12:27:26;;;;;;;3.92;2.15;;;27.90;50.10;;;;;;4956780;28;20401;-79
2023/05/14 12:30:04;;;;;;;4.50;1.70;;;28.80;49.20;;;;;;4927611;28;20034;-75
2023/05/14 12:32:33;;;;;;;3.63;1.70;;;29.40;47.70;;;;;;4959750;28;20037;-78
2023/05/14 12:35:00;;;;;;;2.25;1.20;;;29.70;46.90;;;;;;4964087;28;20398;-74
2023/05/14 12:37:26;;;;;;;1.88;0.98;;;29.80;46.90;;;;;;4945709;28;20408;-74
2023/05/14 12:39:53;;;;;;;2.75;1.00;;;30.00;47.30;;;;;;4950670;28;20627;-74
2023/05/14 12:42:20;;;;;;;1.90;0.90;;;30.00;47.30;;;;;;4960625;28;20035;-70